createdAt,value
2023-01-27T00:00:34.804Z,102156.50
2023-01-27T00:03:01.295Z,102157.41
2023-01-27T00:05:27.767Z,102160.06
2023-01-27T00:07:55.372Z,102156.56
2023-01-27T00:10:21.806Z,102148.63
2023-01-27T00:13:06.864Z,102149.47
2023-01-27T00:15:34.606Z,102153.94
2023-01-27T00:18:01.692Z,102157.53
2023-01-27T00:20:46.536Z,102158.44
2023-01-27T00:23:39.996Z,102147.84
2023-01-27T00:26:09.689Z,102159.44
2023-01-27T00:28:37.953Z,102162.97
2023-01-27T00:31:05.965Z,102161.22
2023-01-27T00:33:32.427Z,102161.22
2023-01-27T00:36:06.212Z,102160.34
2023-01-27T00:38:35.055Z,102153.34
2023-01-27T00:41:19.686Z,102149.81
2023-01-27T00:43:47.930Z,102161.31
2023-01-27T00:46:15.123Z,102159.53
2023-01-27T00:48:41.605Z,102166.66
2023-01-27T00:51:08.080Z,102160.53
2023-01-27T00:53:34.543Z,102146.38
2023-01-27T00:56:00.981Z,102156.97
2023-01-27T00:58:28.723Z,102155.19
2023-01-27T01:00:57.166Z,102151.66
2023-01-27T01:03:23.597Z,102165.84
2023-01-27T01:05:50.045Z,102159.69
2023-01-27T01:08:16.588Z,102154.38
2023-01-27T01:10:43.279Z,102165.88
2023-01-27T01:13:12.902Z,102171.22
2023-01-27T01:15:39.710Z,102169.41
2023-01-27T01:18:07.574Z,102162.34
2023-01-27T01:20:39.325Z,102172.94
2023-01-27T01:23:07.029Z,102177.41
2023-01-27T01:25:34.341Z,102175.66
2023-01-27T01:28:02.666Z,102180.97
2023-01-27T01:30:29.608Z,102190.72
2023-01-27T01:32:57.336Z,102182.72
2023-01-27T01:35:27.698Z,102176.53
2023-01-27T01:37:54.524Z,102188.97
2023-01-27T01:40:23.529Z,102188.06
2023-01-27T01:43:02.478Z,102192.50
2023-01-27T01:45:44.728Z,102186.34
2023-01-27T01:48:31.795Z,102190.81
2023-01-27T01:51:10.628Z,102188.16
2023-01-27T01:53:41.896Z,102184.63
2023-01-27T01:56:13.621Z,102194.34
2023-01-27T02:01:16.502Z,102189.00
2023-01-27T02:03:46.161Z,102196.13
2023-01-27T02:06:13.436Z,102189.06
2023-01-27T02:08:43.692Z,102197.88
2023-01-27T02:11:10.639Z,102192.59
2023-01-27T02:13:38.086Z,102201.44
2023-01-27T02:16:05.595Z,102199.66
2023-01-27T02:18:32.270Z,102194.34
2023-01-27T02:20:58.832Z,102203.19
2023-01-27T02:24:10.760Z,102200.56
2023-01-27T02:26:43.490Z,102189.13
2023-01-27T02:29:13.375Z,102195.25
2023-01-27T02:31:39.973Z,102197.94
2023-01-27T02:34:09.024Z,102200.56
2023-01-27T02:36:40.787Z,102195.22
2023-01-27T02:39:09.774Z,102197.88
2023-01-27T02:41:49.765Z,102197.94
2023-01-27T02:44:16.138Z,102193.53
2023-01-27T02:46:42.901Z,102202.31
2023-01-27T02:49:09.524Z,102198.78
2023-01-27T02:51:36.023Z,102204.09
2023-01-27T02:54:02.421Z,102203.19
2023-01-27T02:56:28.840Z,102201.44
2023-01-27T02:58:56.296Z,102195.25
2023-01-27T03:01:24.464Z,102202.31
2023-01-27T03:03:51.338Z,102193.47
2023-01-27T03:06:19.221Z,102204.09
2023-01-27T03:08:45.718Z,102203.25
2023-01-27T03:11:12.105Z,102213.00
2023-01-27T03:13:38.586Z,102201.50
2023-01-27T03:16:25.773Z,102208.56
2023-01-27T03:18:53.733Z,102216.53
2023-01-27T03:21:20.759Z,102212.13
2023-01-27T03:23:49.119Z,102215.72
2023-01-27T03:26:15.785Z,102210.41
2023-01-27T03:28:42.174Z,102213.88
2023-01-27T03:31:21.662Z,102220.13
2023-01-27T03:33:48.241Z,102223.66
2023-01-27T03:36:33.997Z,102224.53
2023-01-27T03:39:18.766Z,102227.28
2023-01-27T03:42:03.382Z,102221.97
2023-01-27T03:44:48.299Z,102222.84
2023-01-27T03:47:14.691Z,102222.88
2023-01-27T03:49:41.026Z,102223.72
2023-01-27T03:52:07.462Z,102226.41
2023-01-27T03:54:33.804Z,102226.41
2023-01-27T03:57:05.998Z,102229.94
2023-01-27T03:59:32.964Z,102227.28
2023-01-27T04:02:20.038Z,102241.44
2023-01-27T04:05:05.603Z,102237.91
2023-01-27T04:07:35.256Z,102248.59
2023-01-27T04:10:02.429Z,102242.38
2023-01-27T04:12:28.871Z,102250.41
2023-01-27T04:14:55.241Z,102256.59
2023-01-27T04:17:22.067Z,102253.00
2023-01-27T04:19:48.437Z,102261.03
2023-01-27T04:22:15.780Z,102262.75
2023-01-27T04:24:42.763Z,102270.72
2023-01-27T04:27:11.869Z,102270.72
2023-01-27T04:29:43.142Z,102263.66
2023-01-27T04:32:11.738Z,102261.03
2023-01-27T04:34:39.191Z,102271.69
2023-01-27T04:37:07.889Z,102277.00
2023-01-27T04:39:35.133Z,102273.47
2023-01-27T04:42:01.845Z,102287.63
2023-01-27T04:44:28.334Z,102281.41
2023-01-27T04:46:54.804Z,102284.06
2023-01-27T04:49:21.287Z,102280.59
2023-01-27T04:51:47.764Z,102292.06
2023-01-27T04:54:14.552Z,102299.16
2023-01-27T04:56:44.414Z,102298.28
2023-01-27T04:59:13.147Z,102294.72
2023-01-27T05:01:39.798Z,102285.03
2023-01-27T05:04:06.250Z,102297.41
2023-01-27T05:06:32.795Z,102292.09
2023-01-27T05:08:59.337Z,102303.66
2023-01-27T05:11:25.766Z,102290.34
2023-01-27T05:13:52.360Z,102295.66
2023-01-27T05:16:23.976Z,102298.31
2023-01-27T05:18:52.544Z,102301.88
2023-01-27T05:21:24.450Z,102293.94
2023-01-27T05:23:51.732Z,102309.94
2023-01-27T05:26:20.054Z,102306.34
2023-01-27T05:28:48.179Z,102299.28
2023-01-27T05:31:23.314Z,102305.53
2023-01-27T05:33:52.528Z,102307.28
2023-01-27T05:36:21.181Z,102306.41
2023-01-27T05:38:48.076Z,102312.59
2023-01-27T05:41:16.220Z,102310.84
2023-01-27T05:43:44.527Z,102306.41
2023-01-27T05:46:13.703Z,102310.84
2023-01-27T05:48:42.755Z,102300.25
2023-01-27T05:51:10.405Z,102296.72
2023-01-27T05:53:37.752Z,102295.84
2023-01-27T05:56:05.738Z,102294.13
2023-01-27T05:58:32.367Z,102304.78
2023-01-27T06:01:08.380Z,102309.22
2023-01-27T06:03:35.143Z,102320.75
2023-01-27T06:06:01.606Z,102310.97
2023-01-27T06:08:29.021Z,102317.25
2023-01-27T06:10:56.195Z,102320.78
2023-01-27T06:13:24.139Z,102324.31
2023-01-27T06:15:51.452Z,102313.66
2023-01-27T06:18:19.110Z,102314.53
2023-01-27T06:20:45.886Z,102316.28
2023-01-27T06:23:14.677Z,102309.22
2023-01-27T06:25:46.798Z,102313.63
2023-01-27T06:28:27.779Z,102317.13
2023-01-27T06:30:56.174Z,102317.19
2023-01-27T06:33:22.897Z,102322.44
2023-01-27T06:35:49.367Z,102326.84
2023-01-27T06:38:15.817Z,102321.56
2023-01-27T06:40:43.076Z,102318.88
2023-01-27T06:43:16.282Z,102334.78
2023-01-27T06:45:42.690Z,102333.88
2023-01-27T06:48:09.169Z,102340.06
2023-01-27T06:50:36.259Z,102338.28
2023-01-27T06:53:05.642Z,102350.63
2023-01-27T06:55:32.431Z,102345.31
2023-01-27T06:57:58.820Z,102350.63
2023-01-27T07:00:25.476Z,102347.03
2023-01-27T07:02:54.899Z,102347.03
2023-01-27T07:05:21.383Z,102330.28
2023-01-27T07:07:47.821Z,102347.09
2023-01-27T07:10:14.643Z,102350.56
2023-01-27T07:12:41.321Z,102346.22
2023-01-27T07:15:09.459Z,102347.88
2023-01-27T07:17:36.255Z,102358.53
2023-01-27T07:20:03.939Z,102358.47
2023-01-27T07:22:30.364Z,102349.63
2023-01-27T07:24:56.857Z,102355.81
2023-01-27T07:27:24.363Z,102360.22
2023-01-27T07:29:51.141Z,102357.53
2023-01-27T07:32:17.723Z,102356.66
2023-01-27T07:34:44.220Z,102357.53
2023-01-27T07:37:10.680Z,102364.59
2023-01-27T07:39:38.156Z,102363.63
2023-01-27T07:42:05.955Z,102350.38
2023-01-27T07:44:32.894Z,102360.09
2023-01-27T07:46:59.689Z,102363.59
2023-01-27T07:49:27.598Z,102346.78
2023-01-27T07:51:54.198Z,102364.47
2023-01-27T07:54:20.584Z,102364.47
2023-01-27T07:56:47.185Z,102369.78
2023-01-27T07:59:13.660Z,102380.44
2023-01-27T08:01:41.804Z,102373.31
2023-01-27T08:04:08.583Z,102378.63
2023-01-27T08:06:35.140Z,102357.34
2023-01-27T08:09:01.753Z,102373.31
2023-01-27T08:11:28.230Z,102371.47
2023-01-27T08:13:54.686Z,102372.31
2023-01-27T08:16:21.173Z,102380.22
2023-01-27T08:18:47.648Z,102374.88
2023-01-27T08:21:14.171Z,102377.47
2023-01-27T08:23:40.668Z,102381.88
2023-01-27T08:26:07.940Z,102376.50
2023-01-27T08:28:37.513Z,102385.31
2023-01-27T08:31:10.111Z,102383.47
2023-01-27T08:33:37.074Z,102371.94
2023-01-27T08:36:12.471Z,102382.53
2023-01-27T08:38:39.757Z,102377.22
2023-01-27T08:41:12.287Z,102384.22
2023-01-27T08:43:38.773Z,102381.50
2023-01-27T08:46:06.624Z,102370.78
2023-01-27T08:48:34.528Z,102385.81
2023-01-27T08:51:02.209Z,102374.22
2023-01-27T08:53:29.284Z,102386.63
2023-01-27T08:55:57.415Z,102388.41
2023-01-27T08:58:24.906Z,102380.34
2023-01-27T09:00:51.391Z,102377.66
2023-01-27T09:03:17.773Z,102389.13
2023-01-27T09:05:44.364Z,102384.72
2023-01-27T09:08:10.771Z,102391.75
2023-01-27T09:10:39.728Z,102395.25
2023-01-27T09:13:07.509Z,102404.13
2023-01-27T09:15:36.038Z,102404.09
2023-01-27T09:18:05.324Z,102397.88
2023-01-27T09:20:34.349Z,102396.97
2023-01-27T09:23:01.098Z,102403.97
2023-01-27T09:25:27.600Z,102409.25
2023-01-27T09:27:59.352Z,102413.63
2023-01-27T09:30:27.361Z,102410.03
2023-01-27T09:32:58.056Z,102422.44
2023-01-27T09:35:25.336Z,102415.34
2023-01-27T09:37:57.905Z,102419.72
2023-01-27T09:40:48.910Z,102424.06
2023-01-27T09:43:24.756Z,102424.91
2023-01-27T09:46:17.762Z,102425.75
2023-01-27T09:49:13.939Z,102415.91
2023-01-27T09:51:56.426Z,102424.78
2023-01-27T09:54:40.055Z,102413.19
2023-01-27T09:57:14.599Z,102425.47
2023-01-27T10:00:18.084Z,102430.75
2023-01-27T10:03:02.976Z,102421.84
2023-01-27T10:05:51.793Z,102424.50
2023-01-27T10:08:26.992Z,102432.38
2023-01-27T10:11:02.612Z,102440.34
2023-01-27T10:14:06.153Z,102439.47
2023-01-27T10:16:56.460Z,102435.00
2023-01-27T10:19:25.901Z,102437.59
2023-01-27T10:21:59.977Z,102438.44
2023-01-27T10:24:40.663Z,102435.72
2023-01-27T10:27:21.392Z,102436.56
2023-01-27T10:30:01.939Z,102424.06
2023-01-27T10:32:38.577Z,102432.00
2023-01-27T10:35:48.932Z,102432.00
2023-01-27T10:38:32.972Z,102432.84
2023-01-27T10:41:37.746Z,102436.44
2023-01-27T10:44:18.294Z,102432.81
2023-01-27T10:47:05.591Z,102436.28
2023-01-27T10:49:38.092Z,102437.09
2023-01-27T10:52:13.704Z,102439.72
2023-01-27T10:54:50.480Z,102429.13
2023-01-27T10:57:36.931Z,102433.47
2023-01-27T11:01:19.860Z,102425.53
2023-01-27T11:03:40.998Z,102435.22
2023-01-27T11:06:13.157Z,102433.41
2023-01-27T11:08:43.161Z,102432.44
2023-01-27T11:11:28.770Z,102423.53
2023-01-27T11:14:04.600Z,102423.41
2023-01-27T11:16:37.486Z,102412.78
2023-01-27T11:19:36.242Z,102418.03
2023-01-27T11:22:08.645Z,102418.94
2023-01-27T11:24:57.553Z,102410.00
2023-01-27T11:27:35.447Z,102415.28
2023-01-27T11:30:13.697Z,102413.44
2023-01-27T11:33:02.267Z,102414.28
2023-01-27T11:35:31.482Z,102410.69
2023-01-27T11:38:09.770Z,102412.44
2023-01-27T11:40:38.544Z,102415.03
2023-01-27T11:43:05.230Z,102413.16
2023-01-27T11:45:35.513Z,102414.84
2023-01-27T11:48:05.340Z,102410.31
2023-01-27T11:50:35.986Z,102407.66
2023-01-27T11:53:20.431Z,102401.47
2023-01-27T11:56:03.417Z,102410.41
2023-01-27T11:58:45.200Z,102406.81
2023-01-27T12:01:22.326Z,102415.75
2023-01-27T12:03:58.324Z,102398.81
2023-01-27T12:06:47.214Z,102397.09
2023-01-27T12:09:35.289Z,102405.97
2023-01-27T12:12:13.975Z,102402.34
2023-01-27T12:14:54.803Z,102404.09
2023-01-27T12:17:41.796Z,102410.31
2023-01-27T12:20:17.444Z,102419.56
2023-01-27T12:22:49.413Z,102406.03
2023-01-27T12:25:22.699Z,102407.69
2023-01-27T12:27:54.617Z,102402.34
2023-01-27T12:30:28.071Z,102402.31
2023-01-27T12:32:55.493Z,102399.75
2023-01-27T12:35:25.908Z,102388.13
2023-01-27T12:38:05.073Z,102396.16
2023-01-27T12:40:33.667Z,102393.47
2023-01-27T12:43:05.922Z,102388.13
2023-01-27T12:45:38.392Z,102394.41
2023-01-27T12:48:19.778Z,102389.06
2023-01-27T12:50:52.606Z,102393.50
2023-01-27T12:53:21.516Z,102398.88
2023-01-27T12:56:06.940Z,102392.69
2023-01-27T12:58:56.398Z,102388.28
2023-01-27T13:01:37.322Z,102392.69
2023-01-27T13:04:10.536Z,102387.41
2023-01-27T13:06:41.904Z,102390.03
2023-01-27T13:09:26.415Z,102386.53
2023-01-27T13:11:54.852Z,102390.09
2023-01-27T13:14:21.627Z,102383.88
2023-01-27T13:16:58.336Z,102386.47
2023-01-27T13:19:31.778Z,102382.06
2023-01-27T13:21:59.028Z,102380.34
2023-01-27T13:24:35.637Z,102384.72
2023-01-27T13:27:05.054Z,102387.41
2023-01-27T13:29:35.089Z,102387.34
2023-01-27T13:32:09.052Z,102383.78
2023-01-27T13:34:45.351Z,102396.22
2023-01-27T13:37:20.258Z,102390.91
2023-01-27T13:40:01.261Z,102401.56
2023-01-27T13:42:41.728Z,102399.75
2023-01-27T13:45:22.725Z,102402.47
2023-01-27T13:48:01.258Z,102397.16
2023-01-27T13:50:37.183Z,102403.38
2023-01-27T13:53:03.847Z,102404.34
2023-01-27T13:56:02.813Z,102411.50
2023-01-27T13:59:00.243Z,102405.22
2023-01-27T14:01:45.072Z,102404.34
2023-01-27T14:04:34.927Z,102408.84
2023-01-27T14:07:39.432Z,102403.50
2023-01-27T14:10:32.392Z,102404.47
2023-01-27T14:13:38.954Z,102416.91
2023-01-27T14:16:21.884Z,102414.19
2023-01-27T14:18:57.149Z,102411.56
2023-01-27T14:21:50.723Z,102405.34
2023-01-27T14:24:47.822Z,102416.03
2023-01-27T14:27:23.237Z,102414.19
2023-01-27T14:30:22.015Z,102420.44
2023-01-27T14:32:54.289Z,102421.25
2023-01-27T14:35:30.341Z,102425.66
2023-01-27T14:38:27.056Z,102424.84
2023-01-27T14:41:26.964Z,102427.56
2023-01-27T14:44:49.865Z,102424.97
2023-01-27T14:47:51.374Z,102421.50
2023-01-27T14:50:33.754Z,102421.44
2023-01-27T14:53:39.708Z,102424.97
2023-01-27T14:56:28.320Z,102436.50
2023-01-27T14:59:13.481Z,102438.31
2023-01-27T15:01:40.017Z,102441.84
2023-01-27T15:04:15.447Z,102443.53
2023-01-27T15:06:41.791Z,102444.47
2023-01-27T15:09:26.538Z,102444.47
2023-01-27T15:12:18.767Z,102448.06
2023-01-27T15:15:03.902Z,102450.78
2023-01-27T15:17:42.363Z,102456.09
2023-01-27T15:20:15.385Z,102457.88
2023-01-27T15:23:03.785Z,102459.66
2023-01-27T15:25:50.028Z,102448.19
2023-01-27T15:28:19.341Z,102460.59
2023-01-27T15:31:09.899Z,102463.25
2023-01-27T15:34:20.162Z,102460.69
2023-01-27T15:37:24.023Z,102470.47
2023-01-27T15:40:16.386Z,102469.78
2023-01-27T15:43:02.721Z,102466.22
2023-01-27T15:45:34.967Z,102481.38
2023-01-27T15:48:13.512Z,102469.03
2023-01-27T15:50:47.883Z,102476.97
2023-01-27T15:53:20.206Z,102478.78
2023-01-27T15:55:56.021Z,102483.25
2023-01-27T15:58:24.649Z,102485.09
2023-01-27T16:00:54.560Z,102489.50
2023-01-27T16:03:28.844Z,102491.34
2023-01-27T16:06:01.304Z,102494.91
2023-01-27T16:08:37.443Z,102490.50
2023-01-27T16:11:28.609Z,102498.53
2023-01-27T16:14:17.012Z,102493.19
2023-01-27T16:17:09.185Z,102504.84
2023-01-27T16:19:54.941Z,102504.88
2023-01-27T16:22:23.588Z,102503.06
2023-01-27T16:25:24.600Z,102502.25
2023-01-27T16:27:59.284Z,102511.97
2023-01-27T16:30:34.119Z,102512.84
2023-01-27T16:33:15.579Z,102517.25
2023-01-27T16:35:58.069Z,102518.19
2023-01-27T16:38:28.397Z,102525.25
2023-01-27T16:41:04.322Z,102523.50
2023-01-27T16:43:43.619Z,102523.56
2023-01-27T16:46:29.257Z,102517.34
2023-01-27T16:48:55.873Z,102532.38
2023-01-27T16:51:28.753Z,102522.63
2023-01-27T16:53:58.158Z,102525.31
2023-01-27T16:56:32.358Z,102531.53
2023-01-27T16:59:02.738Z,102532.50
2023-01-27T17:01:32.668Z,102542.25
2023-01-27T17:04:14.093Z,102542.25
2023-01-27T17:06:45.987Z,102539.63
2023-01-27T17:09:25.308Z,102543.16
2023-01-27T17:11:53.613Z,102545.84
2023-01-27T17:14:30.490Z,102549.38
2023-01-27T17:17:01.224Z,102548.41
2023-01-27T17:19:31.945Z,102558.25
2023-01-27T17:22:01.126Z,102560.91
2023-01-27T17:24:34.037Z,102555.59
2023-01-27T17:27:25.447Z,102555.63
2023-01-27T17:29:59.310Z,102563.63
2023-01-27T17:32:35.329Z,102560.97
2023-01-27T17:35:05.476Z,102561.91
2023-01-27T17:37:32.576Z,102568.09
2023-01-27T17:40:03.696Z,102560.97
2023-01-27T17:42:33.283Z,102567.22
2023-01-27T17:45:28.581Z,102566.34
2023-01-27T17:47:59.395Z,102558.41
2023-01-27T17:50:34.241Z,102553.94
2023-01-27T17:53:00.904Z,102564.59
2023-01-27T17:55:30.932Z,102564.59
2023-01-27T17:58:04.328Z,102563.69
2023-01-27T18:00:35.280Z,102570.88
2023-01-27T18:03:21.129Z,102578.00
2023-01-27T18:05:51.172Z,102578.84
2023-01-27T18:08:19.323Z,102575.34
2023-01-27T18:10:46.383Z,102577.09
2023-01-27T18:13:18.721Z,102579.75
2023-01-27T18:15:59.642Z,102581.53
2023-01-27T18:18:31.178Z,102580.66
2023-01-27T18:20:57.589Z,102586.00
2023-01-27T18:23:28.559Z,102578.00
2023-01-27T18:26:10.046Z,102583.34
2023-01-27T18:28:38.417Z,102578.88
2023-01-27T18:31:13.505Z,102573.56
2023-01-27T18:33:41.671Z,102591.34
2023-01-27T18:36:21.425Z,102578.88
2023-01-27T18:38:49.911Z,102584.22
2023-01-27T18:41:27.325Z,102586.06
2023-01-27T18:43:53.846Z,102584.56
2023-01-27T18:46:20.357Z,102588.88
2023-01-27T18:48:46.863Z,102591.44
2023-01-27T18:51:17.273Z,102589.63
2023-01-27T18:53:44.065Z,102596.72
2023-01-27T18:56:11.083Z,102587.84
2023-01-27T18:58:38.479Z,102594.97
2023-01-27T19:01:12.878Z,102590.50
2023-01-27T19:03:39.342Z,102591.44
2023-01-27T19:06:15.640Z,102603.84
2023-01-27T19:08:42.506Z,102610.06
2023-01-27T19:11:16.181Z,102605.63
2023-01-27T19:13:44.203Z,102607.38
2023-01-27T19:16:16.284Z,102607.38
2023-01-27T19:18:43.094Z,102609.19
2023-01-27T19:21:14.514Z,102610.97
2023-01-27T19:23:44.823Z,102611.84
2023-01-27T19:26:17.315Z,102612.72
2023-01-27T19:28:45.398Z,102608.31
2023-01-27T19:31:12.065Z,102618.06
2023-01-27T19:33:38.905Z,102616.31
2023-01-27T19:36:22.657Z,102621.66
2023-01-27T19:39:01.147Z,102617.19
2023-01-27T19:41:28.582Z,102617.25
2023-01-27T19:43:54.997Z,102618.09
2023-01-27T19:46:22.438Z,102621.69
2023-01-27T19:48:49.383Z,102621.69
2023-01-27T19:51:17.373Z,102637.69
2023-01-27T19:53:43.861Z,102636.78
2023-01-27T19:56:18.612Z,102631.44
2023-01-27T19:58:47.391Z,102638.56
2023-01-27T20:01:13.933Z,102640.38
2023-01-27T20:03:40.645Z,102642.16
2023-01-27T20:06:23.142Z,102644.78
2023-01-27T20:08:55.268Z,102635.03
2023-01-27T20:11:42.631Z,102642.16
2023-01-27T20:14:14.745Z,102635.94
2023-01-27T20:16:42.492Z,102635.97
2023-01-27T20:19:09.137Z,102641.28
2023-01-27T20:21:35.892Z,102643.97
2023-01-27T20:24:02.576Z,102646.63
2023-01-27T20:26:32.646Z,102634.25
2023-01-27T20:28:59.873Z,102636.03
2023-01-27T20:31:27.074Z,102640.47
2023-01-27T20:33:53.533Z,102644.94
2023-01-27T20:36:22.271Z,102643.19
2023-01-27T20:38:49.221Z,102650.25
2023-01-27T20:41:19.349Z,102646.75
2023-01-27T20:43:45.939Z,102647.63
2023-01-27T20:46:15.440Z,102652.13
2023-01-27T20:48:42.076Z,102648.56
2023-01-27T20:51:11.013Z,102643.22
2023-01-27T20:53:43.210Z,102645.00
2023-01-27T20:56:10.031Z,102637.94
2023-01-27T20:58:36.442Z,102648.63
2023-01-27T21:01:07.133Z,102644.13
2023-01-27T21:03:35.697Z,102647.72
2023-01-27T21:06:02.245Z,102658.41
2023-01-27T21:08:28.802Z,102653.09
2023-01-27T21:10:55.994Z,102647.81
2023-01-27T21:13:22.383Z,102652.22
2023-01-27T21:15:49.803Z,102661.97
2023-01-27T21:18:16.940Z,102651.34
2023-01-27T21:20:47.999Z,102660.22
2023-01-27T21:23:14.861Z,102663.81
2023-01-27T21:25:41.246Z,102651.41
2023-01-27T21:28:07.713Z,102647.84
2023-01-27T21:30:34.146Z,102655.84
2023-01-27T21:33:00.551Z,102646.97
2023-01-27T21:35:26.918Z,102647.03
2023-01-27T21:37:53.317Z,102645.22
2023-01-27T21:40:19.841Z,102635.44
2023-01-27T21:43:04.791Z,102636.38
2023-01-27T21:45:31.144Z,102636.38
2023-01-27T21:47:57.479Z,102648.78
2023-01-27T21:50:23.869Z,102644.38
2023-01-27T21:52:50.913Z,102643.44
2023-01-27T21:55:21.144Z,102641.69
2023-01-27T21:57:48.592Z,102633.75
2023-01-27T22:00:16.631Z,102635.53
2023-01-27T22:02:43.703Z,102647.06
2023-01-27T22:05:11.691Z,102648.81
2023-01-27T22:07:38.571Z,102636.44
2023-01-27T22:10:07.754Z,102632.88
2023-01-27T22:12:34.389Z,102634.66
2023-01-27T22:15:00.836Z,102637.31
2023-01-27T22:17:27.364Z,102638.25
2023-01-27T22:19:53.824Z,102640.91
2023-01-27T22:22:20.324Z,102639.16
2023-01-27T22:24:46.819Z,102637.38
2023-01-27T22:27:13.319Z,102636.53
2023-01-27T22:29:39.802Z,102639.19
2023-01-27T22:32:06.475Z,102646.31
2023-01-27T22:34:33.004Z,102633.91
2023-01-27T22:36:59.518Z,102626.84
2023-01-27T22:39:26.002Z,102643.69
2023-01-27T22:41:52.502Z,102632.16
2023-01-27T22:44:19.327Z,102641.03
2023-01-27T22:46:49.312Z,102633.91
2023-01-27T22:49:16.296Z,102635.69
2023-01-27T22:51:42.845Z,102626.00
2023-01-27T22:54:12.178Z,102632.25
2023-01-27T22:56:38.676Z,102635.78
2023-01-27T22:59:05.382Z,102633.13
2023-01-27T23:01:31.878Z,102639.38
2023-01-27T23:03:58.683Z,102634.91
2023-01-27T23:06:25.288Z,102640.25
2023-01-27T23:08:51.800Z,102639.41
2023-01-27T23:11:18.342Z,102626.97
2023-01-27T23:13:44.851Z,102641.19
2023-01-27T23:16:11.387Z,102635.00
2023-01-27T23:18:37.916Z,102650.94
2023-01-27T23:21:06.974Z,102649.19
2023-01-27T23:23:35.142Z,102650.97
2023-01-27T23:26:02.119Z,102645.66
2023-01-27T23:28:28.616Z,102643.91
2023-01-27T23:30:55.290Z,102644.78
2023-01-27T23:33:21.922Z,102640.38
2023-01-27T23:35:48.569Z,102637.75
2023-01-27T23:38:31.282Z,102637.75
2023-01-27T23:41:05.460Z,102643.94
2023-01-27T23:43:32.044Z,102656.44
2023-01-27T23:45:59.251Z,102650.19
2023-01-27T23:48:26.520Z,102648.44
2023-01-27T23:50:53.029Z,102645.78
2023-01-27T23:53:20.123Z,102644.84
2023-01-27T23:55:55.293Z,102646.66
2023-01-27T23:58:21.820Z,102644.91
